Airfield :
LOGIN :

Register | Disclaimer

   EN    FR    IT 

 










Legend :    VFR   Marginal VFR   IFR   Intensive IFR   Very Intensive IFR
Visi :
Ceiling :
>= 8 km
>= 3000ft
5 to 8 km
1000 to 3000 ft
1500m to 5 km
500 to 1000 ft
800 to 1500m
200 to 500 ft
< 800m
< 200 ft
Symbols :   Thunderstorms  Fog  Heavy snow  Heavy precipitations  Wind > 20 kt
SIGMETs :     Misc.  Thunderstorms  Icing  Turbulence  Mountain Waves  Volcanic Ashes







- Airport Elevation : 33 ft
- IATA code : MHZ


EGUN - RAF Mildenhall

CURRENT METAR :
  • 241256Z AUTO 12015G20KT 9999 CLR 21/11 A3010 RMK AO2 SLP196 T02050109 $

EXPIRED METARs :
  • 241156Z AUTO 12014KT 9999 CLR 20/13 A3012 RMK AO2 SLP203 T02010128 10201 20121 57005 $
  • 241056Z AUTO 13012KT 9999 CLR 19/13 A3013 RMK AO2 SLP206 T01940131 .

TAF AMD TAF EGUN
Valid from the 24 at 13:00 until the 25 at 18:00 UTC


241300Z 2413/2518 13012KT 9999 FEW050 QNH3009INS
TEMPO 2413/2417 12015G20KT
TEMPO 2420/2504 8000 -SHRA BKN040
BECMG 2504/2505 12009KT 6000 BR BKN050 610809 QNH3004INS
BECMG 2507/2508 11009KT 9999 NSW BKN020 610809 QNH3006INS TX21/2413Z TN12/2506Z
No reported NOTAMs for that airfield.



MET'MAP, your aeronautical weather chart ! - Copyright ORBIFLY December 2007 - Disclaimer

ORBIFLY MET'MAP TEAM :

Programming & Development : Alexandra Zaïnal
Concept & Development : Baudouin d'Aumeries
Co-Development & Prog : Marc-Olivier Méhu
Technical & hardware support : Manuel Goepfert

Contact : metmap@orbifly.com




SOURCES & CREDITS :

   NOAA